Airfield :
LOGIN :

Register | Disclaimer

   EN    FR    IT 

 










Legend :    VFR   Marginal VFR   IFR   Intensive IFR   Very Intensive IFR
Visi :
Ceiling :
>= 8 km
>= 3000ft
5 to 8 km
1000 to 3000 ft
1500m to 5 km
500 to 1000 ft
800 to 1500m
200 to 500 ft
< 800m
< 200 ft
Symbols :   Thunderstorms  Fog  Heavy snow  Heavy precipitations  Wind > 20 kt
SIGMETs :     Misc.  Thunderstorms  Icing  Turbulence  Mountain Waves  Volcanic Ashes







- Airport Elevation : 12 ft
- IATA code : BCN


LEBL - Barcelone

CURRENT METAR :
  • 170300Z 31018KT 9999 FEW020 10/03 Q1021 NOSIG

EXPIRED METARs :
  • 170230Z 31018KT 9999 FEW020 11/03 Q1021 NOSIG
  • 170200Z 34015KT 9999 FEW025 12/03 Q1020 NOSIG
  • 170130Z 31014KT 9999 FEW025 12/02 Q1020 NOSIG
  • 170100Z 32012KT 280V340 9999 FEW025 13/02 Q1019 NOSIG
  • 170030Z 31018KT 9999 FEW025 13/02 Q1019 NOSIG

TAF TAF LEBL
Valid from the 17 at 00:00 until the 18 at 00:00 UTC


162300Z 1700/1724 33010KT 9999 FEW040 TX15/1712Z TN07/1706Z
TEMPO 1700/1712 33012G22KT
No reported NOTAMs for that airfield.
2 SIGMETs reported for the Barcelona FIR (LECB) :
 
Severe mountain waves
LECB SIGMET 2 VALID 170530/170700 LEVA
LECB BARCELONA FIR/UIR SEV MTW FCST WI N4218 E00307 - N4110 E00053 - N4059 E00155 - N4159 E004 - N4218 E00307 FL030/280 STNR NC=
Severe turbulence
LECB SIGMET 1 VALID 170132/170530 LEVA
LECB BARCELONA FIR/UIR SEV TURB FCST WI N41 E00030 - N4220 E003 - N42 E004 - N41 E002 - N41 E00030 FL030/280 STNR NC=



MET'MAP, your aeronautical weather chart ! - Copyright ORBIFLY December 2007 - Disclaimer

ORBIFLY MET'MAP TEAM :

Programming & Development : Alexandra Zaïnal
Concept & Development : Baudouin d'Aumeries
Co-Development & Prog : Marc-Olivier Méhu
Technical & hardware support : Manuel Goepfert

Contact : metmap@orbifly.com




SOURCES & CREDITS :

   NOAA